sensor_id;sensor_type;location;lat;lon;timestamp;temperature;humidity
19610;DHT22;9952;47.122;-1.638;2022-09-09T00:02:39;16.70;99.90
19610;DHT22;9952;47.122;-1.638;2022-09-09T00:07:33;16.70;99.90
19610;DHT22;9952;47.122;-1.638;2022-09-09T00:12:29;16.70;99.90
19610;DHT22;9952;47.122;-1.638;2022-09-09T00:17:20;16.70;99.90
19610;DHT22;9952;47.122;-1.638;2022-09-09T00:26:59;16.70;99.90
19610;DHT22;9952;47.122;-1.638;2022-09-09T00:31:41;16.70;99.90
19610;DHT22;9952;47.122;-1.638;2022-09-09T00:36:25;16.70;99.90
19610;DHT22;9952;47.122;-1.638;2022-09-09T00:56:29;16.80;99.90
19610;DHT22;9952;47.122;-1.638;2022-09-09T01:01:14;16.80;99.90
19610;DHT22;9952;47.122;-1.638;2022-09-09T01:06:16;16.80;99.90
19610;DHT22;9952;47.122;-1.638;2022-09-09T01:11:00;16.80;99.90
19610;DHT22;9952;47.122;-1.638;2022-09-09T01:15:44;16.80;99.90
19610;DHT22;9952;47.122;-1.638;2022-09-09T01:20:55;16.90;99.90
19610;DHT22;9952;47.122;-1.638;2022-09-09T01:30:51;16.90;99.90
19610;DHT22;9952;47.122;-1.638;2022-09-09T01:35:53;17.00;99.90
19610;DHT22;9952;47.122;-1.638;2022-09-09T01:40:37;16.90;99.90
19610;DHT22;9952;47.122;-1.638;2022-09-09T01:45:18;16.90;99.90
19610;DHT22;9952;47.122;-1.638;2022-09-09T01:50:00;16.90;99.90
19610;DHT22;9952;47.122;-1.638;2022-09-09T01:54:42;16.90;99.90
19610;DHT22;9952;47.122;-1.638;2022-09-09T02:00:00;16.90;99.90
19610;DHT22;9952;47.122;-1.638;2022-09-09T02:04:52;16.90;99.90
19610;DHT22;9952;47.122;-1.638;2022-09-09T02:09:36;16.90;99.90
19610;DHT22;9952;47.122;-1.638;2022-09-09T02:14:23;16.90;99.90
19610;DHT22;9952;47.122;-1.638;2022-09-09T02:19:27;16.90;99.90
19610;DHT22;9952;47.122;-1.638;2022-09-09T02:24:13;16.80;99.90
19610;DHT22;9952;47.122;-1.638;2022-09-09T02:28:58;16.80;99.90
19610;DHT22;9952;47.122;-1.638;2022-09-09T02:33:46;16.80;99.90
19610;DHT22;9952;47.122;-1.638;2022-09-09T02:38:31;16.70;99.90
19610;DHT22;9952;47.122;-1.638;2022-09-09T02:43:14;16.70;99.90
19610;DHT22;9952;47.122;-1.638;2022-09-09T02:57:47;16.70;99.90
19610;DHT22;9952;47.122;-1.638;2022-09-09T03:02:28;16.70;99.90
19610;DHT22;9952;47.122;-1.638;2022-09-09T03:07:10;16.70;99.90
19610;DHT22;9952;47.122;-1.638;2022-09-09T03:11:51;16.60;99.90
19610;DHT22;9952;47.122;-1.638;2022-09-09T03:16:32;16.60;99.90
19610;DHT22;9952;47.122;-1.638;2022-09-09T03:21:14;16.60;99.90
19610;DHT22;9952;47.122;-1.638;2022-09-09T03:25:55;16.60;99.90
19610;DHT22;9952;47.122;-1.638;2022-09-09T03:30:37;16.60;99.90
19610;DHT22;9952;47.122;-1.638;2022-09-09T03:35:19;16.70;99.90
19610;DHT22;9952;47.122;-1.638;2022-09-09T03:39:59;16.80;99.90
19610;DHT22;9952;47.122;-1.638;2022-09-09T03:44:41;16.80;99.90
19610;DHT22;9952;47.122;-1.638;2022-09-09T03:49:22;16.80;99.90
19610;DHT22;9952;47.122;-1.638;2022-09-09T03:54:04;16.80;99.90
19610;DHT22;9952;47.122;-1.638;2022-09-09T03:58:48;16.70;99.90
19610;DHT22;9952;47.122;-1.638;2022-09-09T04:03:30;16.60;99.90
19610;DHT22;9952;47.122;-1.638;2022-09-09T04:08:11;16.60;99.90
19610;DHT22;9952;47.122;-1.638;2022-09-09T04:12:51;16.50;99.90
19610;DHT22;9952;47.122;-1.638;2022-09-09T04:17:33;16.60;99.90
19610;DHT22;9952;47.122;-1.638;2022-09-09T04:22:14;16.50;99.90
19610;DHT22;9952;47.122;-1.638;2022-09-09T04:26:54;16.50;99.90
19610;DHT22;9952;47.122;-1.638;2022-09-09T04:31:35;16.50;99.90
19610;DHT22;9952;47.122;-1.638;2022-09-09T04:36:18;16.40;99.90
19610;DHT22;9952;47.122;-1.638;2022-09-09T04:41:02;16.40;99.90
19610;DHT22;9952;47.122;-1.638;2022-09-09T04:45:43;16.40;99.90
19610;DHT22;9952;47.122;-1.638;2022-09-09T04:50:24;16.40;99.90
19610;DHT22;9952;47.122;-1.638;2022-09-09T04:55:06;16.40;99.90
19610;DHT22;9952;47.122;-1.638;2022-09-09T04:59:47;16.50;99.90
19610;DHT22;9952;47.122;-1.638;2022-09-09T05:04:28;16.40;99.90
19610;DHT22;9952;47.122;-1.638;2022-09-09T05:09:09;16.30;99.90
19610;DHT22;9952;47.122;-1.638;2022-09-09T05:13:50;16.20;99.90
19610;DHT22;9952;47.122;-1.638;2022-09-09T05:18:31;16.10;99.90
19610;DHT22;9952;47.122;-1.638;2022-09-09T05:23:11;16.10;99.90
19610;DHT22;9952;47.122;-1.638;2022-09-09T05:27:53;16.00;99.90
19610;DHT22;9952;47.122;-1.638;2022-09-09T05:32:34;16.00;99.90
19610;DHT22;9952;47.122;-1.638;2022-09-09T05:37:15;16.00;99.90
19610;DHT22;9952;47.122;-1.638;2022-09-09T05:41:57;16.00;99.90
19610;DHT22;9952;47.122;-1.638;2022-09-09T05:46:37;16.00;99.90
19610;DHT22;9952;47.122;-1.638;2022-09-09T05:51:24;16.00;99.90
19610;DHT22;9952;47.122;-1.638;2022-09-09T05:56:06;16.00;99.90
19610;DHT22;9952;47.122;-1.638;2022-09-09T06:00:48;16.10;99.90
19610;DHT22;9952;47.122;-1.638;2022-09-09T06:05:28;16.10;99.90
19610;DHT22;9952;47.122;-1.638;2022-09-09T06:10:10;16.20;99.90
19610;DHT22;9952;47.122;-1.638;2022-09-09T06:14:51;16.30;99.90
19610;DHT22;9952;47.122;-1.638;2022-09-09T06:19:32;16.20;99.90
19610;DHT22;9952;47.122;-1.638;2022-09-09T06:24:12;16.20;99.90
19610;DHT22;9952;47.122;-1.638;2022-09-09T06:28:58;16.20;99.90
19610;DHT22;9952;47.122;-1.638;2022-09-09T06:33:40;16.10;99.90
19610;DHT22;9952;47.122;-1.638;2022-09-09T06:38:21;16.20;99.90
19610;DHT22;9952;47.122;-1.638;2022-09-09T06:43:03;16.20;99.90
19610;DHT22;9952;47.122;-1.638;2022-09-09T06:47:44;16.20;99.90
19610;DHT22;9952;47.122;-1.638;2022-09-09T06:52:25;16.20;99.90
19610;DHT22;9952;47.122;-1.638;2022-09-09T06:57:06;16.20;99.90
19610;DHT22;9952;47.122;-1.638;2022-09-09T07:01:47;16.30;99.90
19610;DHT22;9952;47.122;-1.638;2022-09-09T07:06:30;16.40;99.90
19610;DHT22;9952;47.122;-1.638;2022-09-09T07:11:11;16.50;99.90
19610;DHT22;9952;47.122;-1.638;2022-09-09T07:15:52;16.60;99.90
19610;DHT22;9952;47.122;-1.638;2022-09-09T07:20:33;16.70;99.90
19610;DHT22;9952;47.122;-1.638;2022-09-09T07:25:14;16.90;99.90
19610;DHT22;9952;47.122;-1.638;2022-09-09T07:29:57;17.60;99.90
19610;DHT22;9952;47.122;-1.638;2022-09-09T07:34:38;18.10;99.90
19610;DHT22;9952;47.122;-1.638;2022-09-09T07:39:18;18.90;99.90
19610;DHT22;9952;47.122;-1.638;2022-09-09T07:44:03;19.70;99.90
19610;DHT22;9952;47.122;-1.638;2022-09-09T07:48:49;19.50;99.90
19610;DHT22;9952;47.122;-1.638;2022-09-09T07:53:33;19.20;99.90
19610;DHT22;9952;47.122;-1.638;2022-09-09T07:58:15;18.90;99.90
19610;DHT22;9952;47.122;-1.638;2022-09-09T08:02:56;18.60;99.90
19610;DHT22;9952;47.122;-1.638;2022-09-09T08:07:37;18.20;99.90
19610;DHT22;9952;47.122;-1.638;2022-09-09T08:12:18;18.10;99.90
19610;DHT22;9952;47.122;-1.638;2022-09-09T08:16:58;18.10;99.90
19610;DHT22;9952;47.122;-1.638;2022-09-09T08:21:40;18.10;99.90
19610;DHT22;9952;47.122;-1.638;2022-09-09T08:26:23;18.10;99.90
19610;DHT22;9952;47.122;-1.638;2022-09-09T08:31:16;18.20;99.90
19610;DHT22;9952;47.122;-1.638;2022-09-09T08:35:57;18.20;99.90
19610;DHT22;9952;47.122;-1.638;2022-09-09T08:40:42;18.20;99.90
19610;DHT22;9952;47.122;-1.638;2022-09-09T08:45:35;18.40;99.90
19610;DHT22;9952;47.122;-1.638;2022-09-09T08:50:36;18.60;99.90
19610;DHT22;9952;47.122;-1.638;2022-09-09T09:00:12;18.80;99.90
19610;DHT22;9952;47.122;-1.638;2022-09-09T09:10:25;18.80;99.90
19610;DHT22;9952;47.122;-1.638;2022-09-09T09:15:23;18.80;99.90
19610;DHT22;9952;47.122;-1.638;2022-09-09T09:20:11;18.70;99.90
19610;DHT22;9952;47.122;-1.638;2022-09-09T09:29:56;19.10;99.90
19610;DHT22;9952;47.122;-1.638;2022-09-09T09:34:38;19.00;99.90
19610;DHT22;9952;47.122;-1.638;2022-09-09T09:39:24;18.90;99.90
19610;DHT22;9952;47.122;-1.638;2022-09-09T09:44:21;18.90;99.90
19610;DHT22;9952;47.122;-1.638;2022-09-09T09:49:05;19.00;99.90
19610;DHT22;9952;47.122;-1.638;2022-09-09T09:53:46;19.00;99.90
19610;DHT22;9952;47.122;-1.638;2022-09-09T09:58:29;19.50;99.90
19610;DHT22;9952;47.122;-1.638;2022-09-09T10:03:33;19.80;99.90
19610;DHT22;9952;47.122;-1.638;2022-09-09T10:08:19;19.80;99.90
19610;DHT22;9952;47.122;-1.638;2022-09-09T10:22:51;19.50;99.90
19610;DHT22;9952;47.122;-1.638;2022-09-09T10:43:39;20.80;99.90
19610;DHT22;9952;47.122;-1.638;2022-09-09T10:48:34;21.20;99.90
19610;DHT22;9952;47.122;-1.638;2022-09-09T10:53:30;21.20;99.90
19610;DHT22;9952;47.122;-1.638;2022-09-09T10:58:30;21.60;99.90
19610;DHT22;9952;47.122;-1.638;2022-09-09T11:03:25;21.90;99.90
19610;DHT22;9952;47.122;-1.638;2022-09-09T11:08:16;22.20;99.90
19610;DHT22;9952;47.122;-1.638;2022-09-09T11:13:03;22.00;99.90
19610;DHT22;9952;47.122;-1.638;2022-09-09T11:17:52;22.20;99.90
19610;DHT22;9952;47.122;-1.638;2022-09-09T11:27:39;22.40;99.90
19610;DHT22;9952;47.122;-1.638;2022-09-09T11:42:24;21.10;99.90
19610;DHT22;9952;47.122;-1.638;2022-09-09T11:47:34;20.70;99.90
19610;DHT22;9952;47.122;-1.638;2022-09-09T11:52:39;20.30;99.90
19610;DHT22;9952;47.122;-1.638;2022-09-09T11:57:36;20.20;99.90
19610;DHT22;9952;47.122;-1.638;2022-09-09T12:02:24;20.00;99.90
19610;DHT22;9952;47.122;-1.638;2022-09-09T12:08:10;19.70;99.90
19610;DHT22;9952;47.122;-1.638;2022-09-09T12:12:30;19.70;99.90
19610;DHT22;9952;47.122;-1.638;2022-09-09T12:22:05;20.60;99.90
19610;DHT22;9952;47.122;-1.638;2022-09-09T12:32:10;21.70;99.90
19610;DHT22;9952;47.122;-1.638;2022-09-09T12:36:57;22.10;99.90
19610;DHT22;9952;47.122;-1.638;2022-09-09T12:41:40;22.40;99.90
19610;DHT22;9952;47.122;-1.638;2022-09-09T12:46:42;22.70;99.90
19610;DHT22;9952;47.122;-1.638;2022-09-09T12:51:28;22.50;99.90
19610;DHT22;9952;47.122;-1.638;2022-09-09T12:56:19;22.60;99.90
19610;DHT22;9952;47.122;-1.638;2022-09-09T13:01:03;22.50;99.90
19610;DHT22;9952;47.122;-1.638;2022-09-09T13:05:49;22.80;99.90
19610;DHT22;9952;47.122;-1.638;2022-09-09T13:10:33;23.00;99.90
19610;DHT22;9952;47.122;-1.638;2022-09-09T13:15:22;22.70;99.90
19610;DHT22;9952;47.122;-1.638;2022-09-09T13:20:03;21.70;99.90
19610;DHT22;9952;47.122;-1.638;2022-09-09T13:24:44;21.10;99.90
19610;DHT22;9952;47.122;-1.638;2022-09-09T13:29:25;20.70;99.90
19610;DHT22;9952;47.122;-1.638;2022-09-09T13:34:13;20.60;99.90
19610;DHT22;9952;47.122;-1.638;2022-09-09T13:38:59;20.60;99.90
19610;DHT22;9952;47.122;-1.638;2022-09-09T13:43:45;20.70;99.90
19610;DHT22;9952;47.122;-1.638;2022-09-09T13:48:28;21.40;99.90
19610;DHT22;9952;47.122;-1.638;2022-09-09T13:53:10;21.90;99.90
19610;DHT22;9952;47.122;-1.638;2022-09-09T14:02:35;22.30;99.90
19610;DHT22;9952;47.122;-1.638;2022-09-09T14:07:18;21.60;99.90
19610;DHT22;9952;47.122;-1.638;2022-09-09T14:11:59;20.80;99.90
19610;DHT22;9952;47.122;-1.638;2022-09-09T14:16:40;20.20;99.90
19610;DHT22;9952;47.122;-1.638;2022-09-09T14:21:21;20.10;99.90
19610;DHT22;9952;47.122;-1.638;2022-09-09T14:26:02;20.00;99.90
19610;DHT22;9952;47.122;-1.638;2022-09-09T14:30:43;20.20;99.90
19610;DHT22;9952;47.122;-1.638;2022-09-09T14:35:24;20.20;99.90
19610;DHT22;9952;47.122;-1.638;2022-09-09T14:40:06;20.10;99.90
19610;DHT22;9952;47.122;-1.638;2022-09-09T14:44:47;20.00;99.90
19610;DHT22;9952;47.122;-1.638;2022-09-09T14:49:28;19.80;99.90
19610;DHT22;9952;47.122;-1.638;2022-09-09T14:54:09;19.70;99.90
19610;DHT22;9952;47.122;-1.638;2022-09-09T14:58:54;19.70;99.90
19610;DHT22;9952;47.122;-1.638;2022-09-09T15:03:36;19.50;99.90
19610;DHT22;9952;47.122;-1.638;2022-09-09T15:08:17;19.50;99.90
19610;DHT22;9952;47.122;-1.638;2022-09-09T15:12:58;19.70;99.90
19610;DHT22;9952;47.122;-1.638;2022-09-09T15:17:39;19.90;99.90
19610;DHT22;9952;47.122;-1.638;2022-09-09T15:22:19;20.30;99.90
19610;DHT22;9952;47.122;-1.638;2022-09-09T15:27:01;20.70;99.90
19610;DHT22;9952;47.122;-1.638;2022-09-09T15:31:42;20.70;99.90
19610;DHT22;9952;47.122;-1.638;2022-09-09T15:36:25;20.70;99.90
19610;DHT22;9952;47.122;-1.638;2022-09-09T15:41:06;20.60;99.90
19610;DHT22;9952;47.122;-1.638;2022-09-09T15:45:53;20.70;99.90
19610;DHT22;9952;47.122;-1.638;2022-09-09T15:50:37;20.70;99.90
19610;DHT22;9952;47.122;-1.638;2022-09-09T15:55:18;20.50;99.90
19610;DHT22;9952;47.122;-1.638;2022-09-09T15:59:59;20.20;99.90
19610;DHT22;9952;47.122;-1.638;2022-09-09T16:04:40;20.00;99.90
19610;DHT22;9952;47.122;-1.638;2022-09-09T16:09:21;19.90;99.90
19610;DHT22;9952;47.122;-1.638;2022-09-09T16:14:03;19.90;99.90
19610;DHT22;9952;47.122;-1.638;2022-09-09T16:18:46;19.80;99.90
19610;DHT22;9952;47.122;-1.638;2022-09-09T16:23:27;19.80;99.90
19610;DHT22;9952;47.122;-1.638;2022-09-09T16:28:08;20.10;99.90
19610;DHT22;9952;47.122;-1.638;2022-09-09T16:32:48;20.00;99.90
19610;DHT22;9952;47.122;-1.638;2022-09-09T16:37:29;20.00;99.90
19610;DHT22;9952;47.122;-1.638;2022-09-09T16:42:10;20.00;99.90
19610;DHT22;9952;47.122;-1.638;2022-09-09T16:46:51;19.90;99.90
19610;DHT22;9952;47.122;-1.638;2022-09-09T16:51:38;19.90;99.90
19610;DHT22;9952;47.122;-1.638;2022-09-09T16:56:24;19.80;99.90
19610;DHT22;9952;47.122;-1.638;2022-09-09T17:01:05;19.90;99.90
19610;DHT22;9952;47.122;-1.638;2022-09-09T17:05:46;19.80;99.90
19610;DHT22;9952;47.122;-1.638;2022-09-09T17:10:27;19.60;99.90
19610;DHT22;9952;47.122;-1.638;2022-09-09T17:15:08;19.40;99.90
19610;DHT22;9952;47.122;-1.638;2022-09-09T17:19:49;19.30;99.90
19610;DHT22;9952;47.122;-1.638;2022-09-09T17:24:30;19.20;99.90
19610;DHT22;9952;47.122;-1.638;2022-09-09T17:29:11;19.30;99.90
19610;DHT22;9952;47.122;-1.638;2022-09-09T17:33:54;19.30;99.90
19610;DHT22;9952;47.122;-1.638;2022-09-09T17:38:35;19.30;99.90
19610;DHT22;9952;47.122;-1.638;2022-09-09T17:43:15;19.10;99.90
19610;DHT22;9952;47.122;-1.638;2022-09-09T17:47:57;19.10;99.90
19610;DHT22;9952;47.122;-1.638;2022-09-09T17:52:38;19.10;99.90
19610;DHT22;9952;47.122;-1.638;2022-09-09T17:57:19;19.00;99.90
19610;DHT22;9952;47.122;-1.638;2022-09-09T18:02:00;18.80;99.90
19610;DHT22;9952;47.122;-1.638;2022-09-09T18:06:47;18.80;99.90
19610;DHT22;9952;47.122;-1.638;2022-09-09T18:11:33;18.70;99.90
19610;DHT22;9952;47.122;-1.638;2022-09-09T18:16:14;18.50;99.90
19610;DHT22;9952;47.122;-1.638;2022-09-09T18:21:07;18.40;99.90
19610;DHT22;9952;47.122;-1.638;2022-09-09T18:25:48;18.30;99.90
19610;DHT22;9952;47.122;-1.638;2022-09-09T18:30:29;18.20;99.90
19610;DHT22;9952;47.122;-1.638;2022-09-09T18:35:10;18.10;99.90
19610;DHT22;9952;47.122;-1.638;2022-09-09T18:39:51;18.00;99.90
19610;DHT22;9952;47.122;-1.638;2022-09-09T18:44:34;17.90;99.90
19610;DHT22;9952;47.122;-1.638;2022-09-09T18:49:15;17.80;99.90
19610;DHT22;9952;47.122;-1.638;2022-09-09T18:54:02;17.80;99.90
19610;DHT22;9952;47.122;-1.638;2022-09-09T18:58:44;17.70;99.90
19610;DHT22;9952;47.122;-1.638;2022-09-09T19:03:26;17.70;99.90
19610;DHT22;9952;47.122;-1.638;2022-09-09T19:08:07;17.60;99.90
19610;DHT22;9952;47.122;-1.638;2022-09-09T19:12:48;17.60;99.90
19610;DHT22;9952;47.122;-1.638;2022-09-09T19:17:29;17.50;99.90
19610;DHT22;9952;47.122;-1.638;2022-09-09T19:22:11;17.50;99.90
19610;DHT22;9952;47.122;-1.638;2022-09-09T19:26:55;17.40;99.90
19610;DHT22;9952;47.122;-1.638;2022-09-09T19:31:37;17.40;99.90
19610;DHT22;9952;47.122;-1.638;2022-09-09T19:36:18;17.40;99.90
19610;DHT22;9952;47.122;-1.638;2022-09-09T19:41:07;17.40;99.90
19610;DHT22;9952;47.122;-1.638;2022-09-09T19:46:02;17.30;99.90
19610;DHT22;9952;47.122;-1.638;2022-09-09T19:50:44;17.30;99.90
19610;DHT22;9952;47.122;-1.638;2022-09-09T19:55:25;17.30;99.90
19610;DHT22;9952;47.122;-1.638;2022-09-09T20:00:06;17.20;99.90
19610;DHT22;9952;47.122;-1.638;2022-09-09T20:04:48;17.20;99.90
19610;DHT22;9952;47.122;-1.638;2022-09-09T20:09:29;17.10;99.90
19610;DHT22;9952;47.122;-1.638;2022-09-09T20:14:11;17.10;99.90
19610;DHT22;9952;47.122;-1.638;2022-09-09T20:18:54;17.00;99.90
19610;DHT22;9952;47.122;-1.638;2022-09-09T20:23:37;17.00;99.90
19610;DHT22;9952;47.122;-1.638;2022-09-09T20:28:18;16.90;99.90
19610;DHT22;9952;47.122;-1.638;2022-09-09T20:33:00;16.80;99.90
19610;DHT22;9952;47.122;-1.638;2022-09-09T20:37:41;16.80;99.90
19610;DHT22;9952;47.122;-1.638;2022-09-09T20:42:22;16.80;99.90
19610;DHT22;9952;47.122;-1.638;2022-09-09T20:47:02;16.70;99.90
19610;DHT22;9952;47.122;-1.638;2022-09-09T20:51:47;16.70;99.90
19610;DHT22;9952;47.122;-1.638;2022-09-09T20:56:32;16.70;99.90
19610;DHT22;9952;47.122;-1.638;2022-09-09T21:01:16;16.60;99.90
19610;DHT22;9952;47.122;-1.638;2022-09-09T21:05:58;16.60;99.90
19610;DHT22;9952;47.122;-1.638;2022-09-09T21:10:43;16.60;99.90
19610;DHT22;9952;47.122;-1.638;2022-09-09T21:15:25;16.70;99.90
19610;DHT22;9952;47.122;-1.638;2022-09-09T21:20:07;16.80;99.90
19610;DHT22;9952;47.122;-1.638;2022-09-09T21:24:48;16.80;99.90
19610;DHT22;9952;47.122;-1.638;2022-09-09T21:29:30;16.80;99.90
19610;DHT22;9952;47.122;-1.638;2022-09-09T21:34:11;16.90;99.90
19610;DHT22;9952;47.122;-1.638;2022-09-09T21:38:52;16.90;99.90
19610;DHT22;9952;47.122;-1.638;2022-09-09T21:43:34;16.90;99.90
19610;DHT22;9952;47.122;-1.638;2022-09-09T21:48:16;16.90;99.90
19610;DHT22;9952;47.122;-1.638;2022-09-09T21:52:57;17.00;99.90
19610;DHT22;9952;47.122;-1.638;2022-09-09T21:57:38;17.00;99.90
19610;DHT22;9952;47.122;-1.638;2022-09-09T22:02:19;17.00;99.90
19610;DHT22;9952;47.122;-1.638;2022-09-09T22:07:01;17.00;99.90
19610;DHT22;9952;47.122;-1.638;2022-09-09T22:11:43;17.00;99.90
19610;DHT22;9952;47.122;-1.638;2022-09-09T22:16:24;17.10;99.90
19610;DHT22;9952;47.122;-1.638;2022-09-09T22:21:13;17.00;99.90
19610;DHT22;9952;47.122;-1.638;2022-09-09T22:25:54;17.00;99.90
19610;DHT22;9952;47.122;-1.638;2022-09-09T22:30:36;16.90;99.90
19610;DHT22;9952;47.122;-1.638;2022-09-09T22:35:18;16.90;99.90
19610;DHT22;9952;47.122;-1.638;2022-09-09T22:39:59;17.00;99.90
19610;DHT22;9952;47.122;-1.638;2022-09-09T22:44:40;16.90;99.90
19610;DHT22;9952;47.122;-1.638;2022-09-09T22:49:22;16.80;99.90
19610;DHT22;9952;47.122;-1.638;2022-09-09T22:54:04;16.90;99.90
19610;DHT22;9952;47.122;-1.638;2022-09-09T22:58:46;16.80;99.90
19610;DHT22;9952;47.122;-1.638;2022-09-09T23:03:28;16.70;99.90
19610;DHT22;9952;47.122;-1.638;2022-09-09T23:08:10;16.70;99.90
19610;DHT22;9952;47.122;-1.638;2022-09-09T23:12:51;16.60;99.90
19610;DHT22;9952;47.122;-1.638;2022-09-09T23:17:31;16.60;99.90
19610;DHT22;9952;47.122;-1.638;2022-09-09T23:22:13;16.60;99.90
19610;DHT22;9952;47.122;-1.638;2022-09-09T23:26:55;16.50;99.90
19610;DHT22;9952;47.122;-1.638;2022-09-09T23:31:35;16.50;99.90
19610;DHT22;9952;47.122;-1.638;2022-09-09T23:36:19;16.40;99.90
19610;DHT22;9952;47.122;-1.638;2022-09-09T23:41:01;16.30;99.90
19610;DHT22;9952;47.122;-1.638;2022-09-09T23:45:41;16.20;99.90
19610;DHT22;9952;47.122;-1.638;2022-09-09T23:50:22;16.20;99.90
19610;DHT22;9952;47.122;-1.638;2022-09-09T23:55:04;16.10;99.90
19610;DHT22;9952;47.122;-1.638;2022-09-09T23:59:48;16.00;99.90
